sensor_id;sensor_type;location;lat;lon;timestamp;P1;durP1;ratioP1;P2;durP2;ratioP2
10651;SDS011;5374;42.742;23.266;2023-02-05T00:02:17;3.57;;;2.40;;
10651;SDS011;5374;42.742;23.266;2023-02-05T00:05:06;3.90;;;2.40;;
10651;SDS011;5374;42.742;23.266;2023-02-05T00:07:53;4.70;;;2.40;;
10651;SDS011;5374;42.742;23.266;2023-02-05T00:10:41;6.33;;;2.70;;
10651;SDS011;5374;42.742;23.266;2023-02-05T00:13:28;3.90;;;3.00;;
10651;SDS011;5374;42.742;23.266;2023-02-05T00:16:16;2.67;;;2.20;;
10651;SDS011;5374;42.742;23.266;2023-02-05T00:19:05;3.60;;;2.43;;
10651;SDS011;5374;42.742;23.266;2023-02-05T00:21:54;3.77;;;2.80;;
10651;SDS011;5374;42.742;23.266;2023-02-05T00:24:41;3.20;;;2.40;;
10651;SDS011;5374;42.742;23.266;2023-02-05T00:27:28;3.20;;;2.37;;
10651;SDS011;5374;42.742;23.266;2023-02-05T00:30:16;3.00;;;2.10;;
10651;SDS011;5374;42.742;23.266;2023-02-05T00:33:03;3.70;;;2.67;;
10651;SDS011;5374;42.742;23.266;2023-02-05T00:35:50;3.30;;;2.60;;
10651;SDS011;5374;42.742;23.266;2023-02-05T00:38:38;3.87;;;2.90;;
10651;SDS011;5374;42.742;23.266;2023-02-05T00:41:26;2.93;;;2.30;;
10651;SDS011;5374;42.742;23.266;2023-02-05T00:44:13;3.27;;;2.60;;
10651;SDS011;5374;42.742;23.266;2023-02-05T00:47:00;4.00;;;2.97;;
10651;SDS011;5374;42.742;23.266;2023-02-05T00:49:47;3.90;;;2.87;;
10651;SDS011;5374;42.742;23.266;2023-02-05T00:52:34;5.03;;;2.90;;
10651;SDS011;5374;42.742;23.266;2023-02-05T00:55:23;3.63;;;2.90;;
10651;SDS011;5374;42.742;23.266;2023-02-05T00:58:10;3.90;;;2.80;;
10651;SDS011;5374;42.742;23.266;2023-02-05T01:00:57;3.43;;;2.60;;
10651;SDS011;5374;42.742;23.266;2023-02-05T01:03:44;3.63;;;2.60;;
10651;SDS011;5374;42.742;23.266;2023-02-05T01:06:32;4.40;;;2.83;;
10651;SDS011;5374;42.742;23.266;2023-02-05T01:09:19;3.73;;;2.83;;
10651;SDS011;5374;42.742;23.266;2023-02-05T01:12:08;3.80;;;2.70;;
10651;SDS011;5374;42.742;23.266;2023-02-05T01:14:55;3.57;;;2.90;;
10651;SDS011;5374;42.742;23.266;2023-02-05T01:17:43;4.63;;;3.40;;
10651;SDS011;5374;42.742;23.266;2023-02-05T01:20:30;5.87;;;2.87;;
10651;SDS011;5374;42.742;23.266;2023-02-05T01:23:17;4.33;;;2.93;;
10651;SDS011;5374;42.742;23.266;2023-02-05T01:26:04;3.77;;;2.93;;
10651;SDS011;5374;42.742;23.266;2023-02-05T01:28:53;3.73;;;3.13;;
10651;SDS011;5374;42.742;23.266;2023-02-05T01:31:40;7.33;;;3.00;;
10651;SDS011;5374;42.742;23.266;2023-02-05T01:34:28;3.90;;;2.80;;
10651;SDS011;5374;42.742;23.266;2023-02-05T01:37:15;3.80;;;3.23;;
10651;SDS011;5374;42.742;23.266;2023-02-05T01:40:02;4.53;;;3.13;;
10651;SDS011;5374;42.742;23.266;2023-02-05T01:42:50;3.53;;;2.87;;
10651;SDS011;5374;42.742;23.266;2023-02-05T01:48:53;3.50;;;2.93;;
10651;SDS011;5374;42.742;23.266;2023-02-05T01:51:44;4.30;;;2.77;;
10651;SDS011;5374;42.742;23.266;2023-02-05T01:54:34;4.37;;;3.03;;
10651;SDS011;5374;42.742;23.266;2023-02-05T01:57:23;3.80;;;3.03;;
10651;SDS011;5374;42.742;23.266;2023-02-05T02:00:11;3.37;;;2.73;;
10651;SDS011;5374;42.742;23.266;2023-02-05T02:03:00;3.57;;;2.90;;
10651;SDS011;5374;42.742;23.266;2023-02-05T02:05:47;3.40;;;2.70;;
10651;SDS011;5374;42.742;23.266;2023-02-05T02:08:36;4.30;;;3.17;;
10651;SDS011;5374;42.742;23.266;2023-02-05T02:11:23;3.57;;;2.90;;
10651;SDS011;5374;42.742;23.266;2023-02-05T02:14:13;5.07;;;3.30;;
10651;SDS011;5374;42.742;23.266;2023-02-05T02:17:01;3.33;;;2.73;;
10651;SDS011;5374;42.742;23.266;2023-02-05T02:19:53;4.83;;;3.57;;
10651;SDS011;5374;42.742;23.266;2023-02-05T02:22:47;5.83;;;3.00;;
10651;SDS011;5374;42.742;23.266;2023-02-05T02:25:57;4.23;;;2.80;;
10651;SDS011;5374;42.742;23.266;2023-02-05T02:29:06;3.97;;;2.93;;
10651;SDS011;5374;42.742;23.266;2023-02-05T02:32:00;3.97;;;2.80;;
10651;SDS011;5374;42.742;23.266;2023-02-05T02:34:55;4.17;;;3.00;;
10651;SDS011;5374;42.742;23.266;2023-02-05T02:37:51;5.87;;;3.00;;
10651;SDS011;5374;42.742;23.266;2023-02-05T02:40:43;4.20;;;3.03;;
10651;SDS011;5374;42.742;23.266;2023-02-05T02:43:37;4.17;;;3.07;;
10651;SDS011;5374;42.742;23.266;2023-02-05T02:46:33;3.17;;;2.53;;
10651;SDS011;5374;42.742;23.266;2023-02-05T02:49:26;4.00;;;3.03;;
10651;SDS011;5374;42.742;23.266;2023-02-05T02:52:17;4.03;;;3.10;;
10651;SDS011;5374;42.742;23.266;2023-02-05T02:55:08;5.77;;;3.10;;
10651;SDS011;5374;42.742;23.266;2023-02-05T02:57:58;3.87;;;2.90;;
10651;SDS011;5374;42.742;23.266;2023-02-05T03:00:47;5.17;;;3.40;;
10651;SDS011;5374;42.742;23.266;2023-02-05T03:03:37;4.93;;;2.70;;
10651;SDS011;5374;42.742;23.266;2023-02-05T03:06:28;4.23;;;2.60;;
10651;SDS011;5374;42.742;23.266;2023-02-05T03:09:20;3.47;;;2.77;;
10651;SDS011;5374;42.742;23.266;2023-02-05T03:12:13;4.07;;;3.00;;
10651;SDS011;5374;42.742;23.266;2023-02-05T03:15:00;4.53;;;3.07;;
10651;SDS011;5374;42.742;23.266;2023-02-05T03:17:50;4.43;;;3.13;;
10651;SDS011;5374;42.742;23.266;2023-02-05T03:20:42;6.20;;;3.37;;
10651;SDS011;5374;42.742;23.266;2023-02-05T03:23:32;5.93;;;3.53;;
10651;SDS011;5374;42.742;23.266;2023-02-05T03:26:23;5.87;;;3.13;;
10651;SDS011;5374;42.742;23.266;2023-02-05T03:29:13;5.30;;;3.47;;
10651;SDS011;5374;42.742;23.266;2023-02-05T03:32:05;5.83;;;3.47;;
10651;SDS011;5374;42.742;23.266;2023-02-05T03:35:08;4.70;;;3.40;;
10651;SDS011;5374;42.742;23.266;2023-02-05T03:38:18;5.93;;;2.83;;
10651;SDS011;5374;42.742;23.266;2023-02-05T03:41:27;4.90;;;3.00;;
10651;SDS011;5374;42.742;23.266;2023-02-05T03:44:38;5.03;;;3.23;;
10651;SDS011;5374;42.742;23.266;2023-02-05T03:47:41;3.83;;;2.77;;
10651;SDS011;5374;42.742;23.266;2023-02-05T03:50:41;5.27;;;2.77;;
10651;SDS011;5374;42.742;23.266;2023-02-05T03:53:37;3.73;;;2.40;;
10651;SDS011;5374;42.742;23.266;2023-02-05T03:56:33;4.47;;;2.63;;
10651;SDS011;5374;42.742;23.266;2023-02-05T03:59:27;4.53;;;2.83;;
10651;SDS011;5374;42.742;23.266;2023-02-05T04:02:15;8.97;;;4.17;;
10651;SDS011;5374;42.742;23.266;2023-02-05T04:05:03;3.03;;;2.60;;
10651;SDS011;5374;42.742;23.266;2023-02-05T04:07:51;3.70;;;2.77;;
10651;SDS011;5374;42.742;23.266;2023-02-05T04:10:40;3.50;;;2.80;;
10651;SDS011;5374;42.742;23.266;2023-02-05T04:13:27;5.17;;;3.17;;
10651;SDS011;5374;42.742;23.266;2023-02-05T04:16:14;4.20;;;3.10;;
10651;SDS011;5374;42.742;23.266;2023-02-05T04:19:01;5.17;;;3.40;;
10651;SDS011;5374;42.742;23.266;2023-02-05T04:21:48;5.60;;;3.20;;
10651;SDS011;5374;42.742;23.266;2023-02-05T04:24:35;5.13;;;3.07;;
10651;SDS011;5374;42.742;23.266;2023-02-05T04:27:24;4.60;;;3.10;;
10651;SDS011;5374;42.742;23.266;2023-02-05T04:30:11;6.17;;;3.30;;
10651;SDS011;5374;42.742;23.266;2023-02-05T04:32:58;4.47;;;3.00;;
10651;SDS011;5374;42.742;23.266;2023-02-05T04:35:45;4.33;;;2.83;;
10651;SDS011;5374;42.742;23.266;2023-02-05T04:38:33;4.40;;;3.20;;
10651;SDS011;5374;42.742;23.266;2023-02-05T04:41:20;5.83;;;2.87;;
10651;SDS011;5374;42.742;23.266;2023-02-05T04:44:08;4.53;;;3.20;;
10651;SDS011;5374;42.742;23.266;2023-02-05T04:46:55;5.40;;;3.03;;
10651;SDS011;5374;42.742;23.266;2023-02-05T04:49:42;3.70;;;2.93;;
10651;SDS011;5374;42.742;23.266;2023-02-05T04:52:30;4.20;;;3.50;;
10651;SDS011;5374;42.742;23.266;2023-02-05T04:55:17;6.43;;;4.10;;
10651;SDS011;5374;42.742;23.266;2023-02-05T04:58:04;5.67;;;3.90;;
10651;SDS011;5374;42.742;23.266;2023-02-05T05:00:52;4.00;;;3.07;;
10651;SDS011;5374;42.742;23.266;2023-02-05T05:03:39;4.07;;;2.90;;
10651;SDS011;5374;42.742;23.266;2023-02-05T05:06:27;8.13;;;3.77;;
10651;SDS011;5374;42.742;23.266;2023-02-05T05:09:14;9.90;;;4.33;;
10651;SDS011;5374;42.742;23.266;2023-02-05T05:12:01;8.40;;;4.30;;
10651;SDS011;5374;42.742;23.266;2023-02-05T05:14:48;8.53;;;4.13;;
10651;SDS011;5374;42.742;23.266;2023-02-05T05:17:36;10.90;;;4.07;;
10651;SDS011;5374;42.742;23.266;2023-02-05T05:20:23;9.93;;;4.80;;
10651;SDS011;5374;42.742;23.266;2023-02-05T05:23:11;7.17;;;4.50;;
10651;SDS011;5374;42.742;23.266;2023-02-05T05:25:58;8.23;;;4.53;;
10651;SDS011;5374;42.742;23.266;2023-02-05T05:28:45;5.30;;;3.80;;
10651;SDS011;5374;42.742;23.266;2023-02-05T05:31:32;6.47;;;4.20;;
10651;SDS011;5374;42.742;23.266;2023-02-05T05:34:21;4.80;;;3.03;;
10651;SDS011;5374;42.742;23.266;2023-02-05T05:37:08;4.97;;;3.40;;
10651;SDS011;5374;42.742;23.266;2023-02-05T05:39:55;6.23;;;3.97;;
10651;SDS011;5374;42.742;23.266;2023-02-05T05:43:01;8.53;;;5.60;;
10651;SDS011;5374;42.742;23.266;2023-02-05T05:46:05;7.10;;;5.20;;
10651;SDS011;5374;42.742;23.266;2023-02-05T05:48:54;10.83;;;6.87;;
10651;SDS011;5374;42.742;23.266;2023-02-05T05:51:43;10.60;;;8.10;;
10651;SDS011;5374;42.742;23.266;2023-02-05T05:54:30;15.20;;;10.63;;
10651;SDS011;5374;42.742;23.266;2023-02-05T05:57:17;7.07;;;5.93;;
10651;SDS011;5374;42.742;23.266;2023-02-05T06:00:05;6.20;;;4.20;;
10651;SDS011;5374;42.742;23.266;2023-02-05T06:02:53;7.50;;;4.50;;
10651;SDS011;5374;42.742;23.266;2023-02-05T06:05:41;13.60;;;6.97;;
10651;SDS011;5374;42.742;23.266;2023-02-05T06:08:29;15.83;;;8.30;;
10651;SDS011;5374;42.742;23.266;2023-02-05T06:11:17;17.20;;;9.37;;
10651;SDS011;5374;42.742;23.266;2023-02-05T06:14:04;18.83;;;10.43;;
10651;SDS011;5374;42.742;23.266;2023-02-05T06:16:51;51.77;;;19.60;;
10651;SDS011;5374;42.742;23.266;2023-02-05T06:19:40;14.00;;;7.07;;
10651;SDS011;5374;42.742;23.266;2023-02-05T06:22:27;8.47;;;5.40;;
10651;SDS011;5374;42.742;23.266;2023-02-05T06:25:16;9.93;;;5.80;;
10651;SDS011;5374;42.742;23.266;2023-02-05T06:28:03;10.37;;;5.20;;
10651;SDS011;5374;42.742;23.266;2023-02-05T06:30:50;5.37;;;3.80;;
10651;SDS011;5374;42.742;23.266;2023-02-05T06:33:38;7.30;;;4.00;;
10651;SDS011;5374;42.742;23.266;2023-02-05T06:36:25;13.00;;;5.57;;
10651;SDS011;5374;42.742;23.266;2023-02-05T06:39:12;10.80;;;5.00;;
10651;SDS011;5374;42.742;23.266;2023-02-05T06:42:01;10.87;;;6.40;;
10651;SDS011;5374;42.742;23.266;2023-02-05T06:44:49;9.10;;;5.27;;
10651;SDS011;5374;42.742;23.266;2023-02-05T06:47:36;14.63;;;9.13;;
10651;SDS011;5374;42.742;23.266;2023-02-05T06:50:23;16.13;;;8.37;;
10651;SDS011;5374;42.742;23.266;2023-02-05T06:53:11;7.80;;;5.50;;
10651;SDS011;5374;42.742;23.266;2023-02-05T06:55:58;8.27;;;5.90;;
10651;SDS011;5374;42.742;23.266;2023-02-05T06:58:47;13.20;;;8.00;;
10651;SDS011;5374;42.742;23.266;2023-02-05T07:01:35;13.93;;;8.20;;
10651;SDS011;5374;42.742;23.266;2023-02-05T07:04:22;8.33;;;5.20;;
10651;SDS011;5374;42.742;23.266;2023-02-05T07:07:11;10.27;;;5.27;;
10651;SDS011;5374;42.742;23.266;2023-02-05T07:10:00;7.40;;;5.07;;
10651;SDS011;5374;42.742;23.266;2023-02-05T07:12:47;6.50;;;3.97;;
10651;SDS011;5374;42.742;23.266;2023-02-05T07:15:36;7.27;;;4.40;;
10651;SDS011;5374;42.742;23.266;2023-02-05T07:18:24;9.47;;;5.97;;
10651;SDS011;5374;42.742;23.266;2023-02-05T07:21:13;8.37;;;5.43;;
10651;SDS011;5374;42.742;23.266;2023-02-05T07:24:03;12.83;;;6.53;;
10651;SDS011;5374;42.742;23.266;2023-02-05T07:26:51;12.73;;;7.40;;
10651;SDS011;5374;42.742;23.266;2023-02-05T07:29:39;10.07;;;6.20;;
10651;SDS011;5374;42.742;23.266;2023-02-05T07:32:28;18.97;;;10.03;;
10651;SDS011;5374;42.742;23.266;2023-02-05T07:35:15;15.07;;;8.27;;
10651;SDS011;5374;42.742;23.266;2023-02-05T07:38:03;20.97;;;9.23;;
10651;SDS011;5374;42.742;23.266;2023-02-05T07:40:51;24.97;;;13.27;;
10651;SDS011;5374;42.742;23.266;2023-02-05T07:43:41;23.90;;;12.47;;
10651;SDS011;5374;42.742;23.266;2023-02-05T07:46:29;27.43;;;13.40;;
10651;SDS011;5374;42.742;23.266;2023-02-05T07:49:17;28.30;;;13.23;;
10651;SDS011;5374;42.742;23.266;2023-02-05T07:52:08;37.83;;;15.57;;
10651;SDS011;5374;42.742;23.266;2023-02-05T07:54:56;17.90;;;8.70;;
10651;SDS011;5374;42.742;23.266;2023-02-05T07:57:43;24.73;;;9.83;;
10651;SDS011;5374;42.742;23.266;2023-02-05T08:00:31;23.63;;;11.63;;
10651;SDS011;5374;42.742;23.266;2023-02-05T08:03:19;25.20;;;13.33;;
10651;SDS011;5374;42.742;23.266;2023-02-05T08:06:08;20.50;;;11.07;;
10651;SDS011;5374;42.742;23.266;2023-02-05T08:08:59;16.50;;;10.40;;
10651;SDS011;5374;42.742;23.266;2023-02-05T08:11:47;18.17;;;11.73;;
10651;SDS011;5374;42.742;23.266;2023-02-05T08:14:34;11.33;;;8.00;;
10651;SDS011;5374;42.742;23.266;2023-02-05T08:17:21;13.63;;;8.67;;
10651;SDS011;5374;42.742;23.266;2023-02-05T08:20:09;9.63;;;6.30;;
10651;SDS011;5374;42.742;23.266;2023-02-05T08:22:58;9.80;;;6.20;;
10651;SDS011;5374;42.742;23.266;2023-02-05T08:25:51;16.03;;;10.30;;
10651;SDS011;5374;42.742;23.266;2023-02-05T08:28:39;9.80;;;6.10;;
10651;SDS011;5374;42.742;23.266;2023-02-05T08:31:26;10.70;;;5.67;;
10651;SDS011;5374;42.742;23.266;2023-02-05T08:34:14;11.67;;;7.40;;
10651;SDS011;5374;42.742;23.266;2023-02-05T08:37:01;5.47;;;3.40;;
10651;SDS011;5374;42.742;23.266;2023-02-05T08:39:49;4.00;;;2.93;;
10651;SDS011;5374;42.742;23.266;2023-02-05T08:42:36;11.50;;;6.90;;
10651;SDS011;5374;42.742;23.266;2023-02-05T08:45:24;6.33;;;3.90;;
10651;SDS011;5374;42.742;23.266;2023-02-05T08:48:11;6.37;;;4.00;;
10651;SDS011;5374;42.742;23.266;2023-02-05T08:50:58;10.53;;;6.87;;
10651;SDS011;5374;42.742;23.266;2023-02-05T08:53:45;12.17;;;7.73;;
10651;SDS011;5374;42.742;23.266;2023-02-05T08:56:34;4.97;;;3.30;;
10651;SDS011;5374;42.742;23.266;2023-02-05T08:59:21;4.67;;;3.00;;
10651;SDS011;5374;42.742;23.266;2023-02-05T09:02:09;15.93;;;11.43;;
10651;SDS011;5374;42.742;23.266;2023-02-05T09:04:59;4.87;;;3.50;;
10651;SDS011;5374;42.742;23.266;2023-02-05T09:07:46;6.80;;;4.03;;
10651;SDS011;5374;42.742;23.266;2023-02-05T09:10:34;6.93;;;3.93;;
10651;SDS011;5374;42.742;23.266;2023-02-05T09:13:22;8.03;;;3.97;;
10651;SDS011;5374;42.742;23.266;2023-02-05T09:16:10;6.80;;;4.00;;
10651;SDS011;5374;42.742;23.266;2023-02-05T09:18:58;5.43;;;3.73;;
10651;SDS011;5374;42.742;23.266;2023-02-05T09:21:45;3.40;;;2.20;;
10651;SDS011;5374;42.742;23.266;2023-02-05T09:24:33;5.27;;;3.17;;
10651;SDS011;5374;42.742;23.266;2023-02-05T09:27:22;5.40;;;3.50;;
10651;SDS011;5374;42.742;23.266;2023-02-05T09:30:11;7.27;;;3.63;;
10651;SDS011;5374;42.742;23.266;2023-02-05T09:32:59;5.57;;;3.07;;
10651;SDS011;5374;42.742;23.266;2023-02-05T09:35:46;6.30;;;3.20;;
10651;SDS011;5374;42.742;23.266;2023-02-05T09:38:33;7.07;;;3.00;;
10651;SDS011;5374;42.742;23.266;2023-02-05T09:41:23;6.27;;;3.20;;
10651;SDS011;5374;42.742;23.266;2023-02-05T09:44:16;4.90;;;3.30;;
10651;SDS011;5374;42.742;23.266;2023-02-05T09:47:15;5.40;;;3.20;;
10651;SDS011;5374;42.742;23.266;2023-02-05T09:50:10;2.60;;;1.83;;
10651;SDS011;5374;42.742;23.266;2023-02-05T09:53:02;4.53;;;3.17;;
10651;SDS011;5374;42.742;23.266;2023-02-05T09:55:54;2.87;;;1.90;;
10651;SDS011;5374;42.742;23.266;2023-02-05T09:58:44;2.50;;;1.60;;
10651;SDS011;5374;42.742;23.266;2023-02-05T10:01:35;2.30;;;1.57;;
10651;SDS011;5374;42.742;23.266;2023-02-05T10:04:31;2.10;;;1.60;;
10651;SDS011;5374;42.742;23.266;2023-02-05T10:07:20;3.87;;;2.30;;
10651;SDS011;5374;42.742;23.266;2023-02-05T10:10:24;2.90;;;2.10;;
10651;SDS011;5374;42.742;23.266;2023-02-05T10:13:33;4.13;;;2.40;;
10651;SDS011;5374;42.742;23.266;2023-02-05T10:16:25;4.17;;;2.50;;
10651;SDS011;5374;42.742;23.266;2023-02-05T10:19:41;6.23;;;4.27;;
10651;SDS011;5374;42.742;23.266;2023-02-05T10:22:46;5.03;;;3.50;;
10651;SDS011;5374;42.742;23.266;2023-02-05T10:25:57;2.60;;;1.97;;
10651;SDS011;5374;42.742;23.266;2023-02-05T10:29:03;8.47;;;3.13;;
10651;SDS011;5374;42.742;23.266;2023-02-05T10:32:09;5.33;;;4.27;;
10651;SDS011;5374;42.742;23.266;2023-02-05T10:35:11;3.23;;;2.33;;
10651;SDS011;5374;42.742;23.266;2023-02-05T10:38:09;5.13;;;2.83;;
10651;SDS011;5374;42.742;23.266;2023-02-05T10:41:04;4.50;;;3.17;;
10651;SDS011;5374;42.742;23.266;2023-02-05T10:44:00;5.10;;;2.87;;
10651;SDS011;5374;42.742;23.266;2023-02-05T10:46:50;4.50;;;2.00;;
10651;SDS011;5374;42.742;23.266;2023-02-05T10:49:42;2.90;;;1.80;;
10651;SDS011;5374;42.742;23.266;2023-02-05T10:52:35;3.80;;;2.57;;
10651;SDS011;5374;42.742;23.266;2023-02-05T10:55:22;4.33;;;2.60;;
10651;SDS011;5374;42.742;23.266;2023-02-05T10:58:20;4.37;;;2.80;;
10651;SDS011;5374;42.742;23.266;2023-02-05T11:01:17;3.57;;;2.50;;
10651;SDS011;5374;42.742;23.266;2023-02-05T11:04:09;3.97;;;2.87;;
10651;SDS011;5374;42.742;23.266;2023-02-05T11:06:58;7.40;;;5.93;;
10651;SDS011;5374;42.742;23.266;2023-02-05T11:09:51;7.03;;;5.60;;
10651;SDS011;5374;42.742;23.266;2023-02-05T11:12:41;4.50;;;3.33;;
10651;SDS011;5374;42.742;23.266;2023-02-05T11:15:30;9.17;;;5.40;;
10651;SDS011;5374;42.742;23.266;2023-02-05T11:18:20;9.27;;;5.57;;
10651;SDS011;5374;42.742;23.266;2023-02-05T11:21:09;6.03;;;4.63;;
10651;SDS011;5374;42.742;23.266;2023-02-05T11:23:57;7.03;;;5.50;;
10651;SDS011;5374;42.742;23.266;2023-02-05T11:26:46;9.57;;;6.30;;
10651;SDS011;5374;42.742;23.266;2023-02-05T11:29:33;10.53;;;7.50;;
10651;SDS011;5374;42.742;23.266;2023-02-05T11:32:21;9.53;;;5.93;;
10651;SDS011;5374;42.742;23.266;2023-02-05T11:35:19;9.20;;;6.03;;
10651;SDS011;5374;42.742;23.266;2023-02-05T11:38:09;10.47;;;7.40;;
10651;SDS011;5374;42.742;23.266;2023-02-05T11:41:04;7.87;;;5.27;;
10651;SDS011;5374;42.742;23.266;2023-02-05T11:43:54;7.23;;;4.13;;
10651;SDS011;5374;42.742;23.266;2023-02-05T11:46:43;6.57;;;5.10;;
10651;SDS011;5374;42.742;23.266;2023-02-05T11:49:32;11.23;;;6.53;;
10651;SDS011;5374;42.742;23.266;2023-02-05T11:52:24;9.23;;;5.80;;
10651;SDS011;5374;42.742;23.266;2023-02-05T11:55:22;6.37;;;4.17;;
10651;SDS011;5374;42.742;23.266;2023-02-05T11:58:21;6.40;;;4.83;;
10651;SDS011;5374;42.742;23.266;2023-02-05T12:01:22;5.40;;;4.00;;
10651;SDS011;5374;42.742;23.266;2023-02-05T12:04:13;6.57;;;3.73;;
10651;SDS011;5374;42.742;23.266;2023-02-05T12:07:04;4.60;;;3.50;;
10651;SDS011;5374;42.742;23.266;2023-02-05T12:09:58;5.57;;;4.13;;
10651;SDS011;5374;42.742;23.266;2023-02-05T12:12:48;7.37;;;5.37;;
10651;SDS011;5374;42.742;23.266;2023-02-05T12:15:46;4.93;;;3.20;;
10651;SDS011;5374;42.742;23.266;2023-02-05T12:18:46;6.17;;;4.93;;
10651;SDS011;5374;42.742;23.266;2023-02-05T12:21:43;4.60;;;3.00;;
10651;SDS011;5374;42.742;23.266;2023-02-05T12:24:44;3.33;;;2.17;;
10651;SDS011;5374;42.742;23.266;2023-02-05T12:27:41;3.07;;;2.40;;
10651;SDS011;5374;42.742;23.266;2023-02-05T12:30:43;7.03;;;4.00;;
10651;SDS011;5374;42.742;23.266;2023-02-05T12:33:41;4.80;;;3.40;;
10651;SDS011;5374;42.742;23.266;2023-02-05T12:36:42;5.07;;;3.20;;
10651;SDS011;5374;42.742;23.266;2023-02-05T12:39:40;5.73;;;2.80;;
10651;SDS011;5374;42.742;23.266;2023-02-05T12:42:30;5.20;;;3.83;;
10651;SDS011;5374;42.742;23.266;2023-02-05T12:45:24;6.37;;;4.10;;
10651;SDS011;5374;42.742;23.266;2023-02-05T12:48:27;8.00;;;5.47;;
10651;SDS011;5374;42.742;23.266;2023-02-05T12:51:34;5.07;;;3.53;;
10651;SDS011;5374;42.742;23.266;2023-02-05T12:57:48;4.57;;;3.50;;
10651;SDS011;5374;42.742;23.266;2023-02-05T13:00:39;5.00;;;3.10;;
10651;SDS011;5374;42.742;23.266;2023-02-05T13:03:31;4.70;;;3.83;;
10651;SDS011;5374;42.742;23.266;2023-02-05T13:06:25;5.10;;;3.23;;
10651;SDS011;5374;42.742;23.266;2023-02-05T13:09:17;5.53;;;3.67;;
10651;SDS011;5374;42.742;23.266;2023-02-05T13:12:09;7.57;;;5.40;;
10651;SDS011;5374;42.742;23.266;2023-02-05T13:15:01;5.80;;;3.67;;
10651;SDS011;5374;42.742;23.266;2023-02-05T13:17:57;5.27;;;3.90;;
10651;SDS011;5374;42.742;23.266;2023-02-05T13:20:48;7.90;;;5.60;;
10651;SDS011;5374;42.742;23.266;2023-02-05T13:24:01;8.30;;;6.13;;
10651;SDS011;5374;42.742;23.266;2023-02-05T13:30:29;8.10;;;6.27;;
10651;SDS011;5374;42.742;23.266;2023-02-05T13:33:20;8.83;;;6.23;;
10651;SDS011;5374;42.742;23.266;2023-02-05T13:36:12;10.40;;;7.07;;
10651;SDS011;5374;42.742;23.266;2023-02-05T13:39:22;10.03;;;6.63;;
10651;SDS011;5374;42.742;23.266;2023-02-05T13:45:50;10.70;;;7.40;;
10651;SDS011;5374;42.742;23.266;2023-02-05T13:49:03;9.63;;;7.20;;
10651;SDS011;5374;42.742;23.266;2023-02-05T13:52:14;7.53;;;6.07;;
10651;SDS011;5374;42.742;23.266;2023-02-05T13:58:47;10.03;;;6.50;;
10651;SDS011;5374;42.742;23.266;2023-02-05T14:01:39;6.43;;;5.57;;
10651;SDS011;5374;42.742;23.266;2023-02-05T14:04:29;6.53;;;5.37;;
10651;SDS011;5374;42.742;23.266;2023-02-05T14:07:24;6.63;;;5.93;;
10651;SDS011;5374;42.742;23.266;2023-02-05T14:10:24;8.27;;;5.77;;
10651;SDS011;5374;42.742;23.266;2023-02-05T14:13:16;10.43;;;6.47;;
10651;SDS011;5374;42.742;23.266;2023-02-05T14:19:52;11.87;;;9.20;;
10651;SDS011;5374;42.742;23.266;2023-02-05T14:22:45;12.10;;;7.50;;
10651;SDS011;5374;42.742;23.266;2023-02-05T14:28:53;7.33;;;5.60;;
10651;SDS011;5374;42.742;23.266;2023-02-05T14:31:44;7.53;;;6.03;;
10651;SDS011;5374;42.742;23.266;2023-02-05T14:34:44;7.20;;;5.57;;
10651;SDS011;5374;42.742;23.266;2023-02-05T14:37:46;8.30;;;6.10;;
10651;SDS011;5374;42.742;23.266;2023-02-05T14:40:35;16.17;;;8.70;;
10651;SDS011;5374;42.742;23.266;2023-02-05T14:43:24;12.97;;;8.23;;
10651;SDS011;5374;42.742;23.266;2023-02-05T14:46:20;13.50;;;8.60;;
10651;SDS011;5374;42.742;23.266;2023-02-05T14:49:19;9.33;;;6.30;;
10651;SDS011;5374;42.742;23.266;2023-02-05T14:52:17;8.80;;;6.30;;
10651;SDS011;5374;42.742;23.266;2023-02-05T14:55:16;9.63;;;6.40;;
10651;SDS011;5374;42.742;23.266;2023-02-05T14:58:06;12.80;;;8.53;;
10651;SDS011;5374;42.742;23.266;2023-02-05T15:04:23;10.33;;;6.97;;
10651;SDS011;5374;42.742;23.266;2023-02-05T15:07:19;9.10;;;5.73;;
10651;SDS011;5374;42.742;23.266;2023-02-05T15:10:12;16.10;;;8.93;;
10651;SDS011;5374;42.742;23.266;2023-02-05T15:13:07;14.67;;;8.83;;
10651;SDS011;5374;42.742;23.266;2023-02-05T15:16:14;16.63;;;8.70;;
10651;SDS011;5374;42.742;23.266;2023-02-05T15:19:05;14.67;;;9.03;;
10651;SDS011;5374;42.742;23.266;2023-02-05T15:21:55;21.47;;;12.10;;
10651;SDS011;5374;42.742;23.266;2023-02-05T15:24:43;14.33;;;9.00;;
10651;SDS011;5374;42.742;23.266;2023-02-05T15:27:36;10.67;;;7.60;;
10651;SDS011;5374;42.742;23.266;2023-02-05T15:30:32;11.90;;;7.53;;
10651;SDS011;5374;42.742;23.266;2023-02-05T15:33:34;16.83;;;9.73;;
10651;SDS011;5374;42.742;23.266;2023-02-05T15:36:31;11.17;;;8.30;;
10651;SDS011;5374;42.742;23.266;2023-02-05T15:39:23;23.60;;;11.40;;
10651;SDS011;5374;42.742;23.266;2023-02-05T15:42:17;21.60;;;11.13;;
10651;SDS011;5374;42.742;23.266;2023-02-05T15:45:15;17.40;;;9.30;;
10651;SDS011;5374;42.742;23.266;2023-02-05T15:48:06;14.70;;;9.03;;
10651;SDS011;5374;42.742;23.266;2023-02-05T15:50:58;11.10;;;6.87;;
10651;SDS011;5374;42.742;23.266;2023-02-05T15:53:48;10.63;;;7.37;;
10651;SDS011;5374;42.742;23.266;2023-02-05T15:56:37;26.13;;;15.13;;
10651;SDS011;5374;42.742;23.266;2023-02-05T15:59:27;15.87;;;9.47;;
10651;SDS011;5374;42.742;23.266;2023-02-05T16:02:17;12.23;;;7.50;;
10651;SDS011;5374;42.742;23.266;2023-02-05T16:05:16;11.63;;;7.70;;
10651;SDS011;5374;42.742;23.266;2023-02-05T16:08:13;9.57;;;7.20;;
10651;SDS011;5374;42.742;23.266;2023-02-05T16:11:03;12.27;;;8.20;;
10651;SDS011;5374;42.742;23.266;2023-02-05T16:14:00;21.27;;;11.77;;
10651;SDS011;5374;42.742;23.266;2023-02-05T16:16:53;10.67;;;6.83;;
10651;SDS011;5374;42.742;23.266;2023-02-05T16:19:45;9.47;;;6.00;;
10651;SDS011;5374;42.742;23.266;2023-02-05T16:22:38;13.33;;;8.40;;
10651;SDS011;5374;42.742;23.266;2023-02-05T16:25:34;11.77;;;7.33;;
10651;SDS011;5374;42.742;23.266;2023-02-05T16:28:27;12.27;;;7.60;;
10651;SDS011;5374;42.742;23.266;2023-02-05T16:31:22;12.90;;;8.03;;
10651;SDS011;5374;42.742;23.266;2023-02-05T16:34:12;12.27;;;8.00;;
10651;SDS011;5374;42.742;23.266;2023-02-05T16:37:03;10.47;;;6.97;;
10651;SDS011;5374;42.742;23.266;2023-02-05T16:39:54;14.67;;;9.67;;
10651;SDS011;5374;42.742;23.266;2023-02-05T16:42:44;17.93;;;11.87;;
10651;SDS011;5374;42.742;23.266;2023-02-05T16:45:32;13.80;;;9.67;;
10651;SDS011;5374;42.742;23.266;2023-02-05T16:48:20;15.23;;;11.90;;
10651;SDS011;5374;42.742;23.266;2023-02-05T16:51:24;13.43;;;9.37;;
10651;SDS011;5374;42.742;23.266;2023-02-05T16:54:29;17.13;;;9.30;;
10651;SDS011;5374;42.742;23.266;2023-02-05T16:57:23;10.50;;;8.13;;
10651;SDS011;5374;42.742;23.266;2023-02-05T17:00:17;8.10;;;6.17;;
10651;SDS011;5374;42.742;23.266;2023-02-05T17:03:15;9.43;;;7.17;;
10651;SDS011;5374;42.742;23.266;2023-02-05T17:06:07;8.70;;;6.80;;
10651;SDS011;5374;42.742;23.266;2023-02-05T17:09:01;18.60;;;10.30;;
10651;SDS011;5374;42.742;23.266;2023-02-05T17:11:51;10.30;;;6.90;;
10651;SDS011;5374;42.742;23.266;2023-02-05T17:14:41;11.63;;;8.00;;
10651;SDS011;5374;42.742;23.266;2023-02-05T17:17:43;15.37;;;8.70;;
10651;SDS011;5374;42.742;23.266;2023-02-05T17:20:34;23.57;;;13.40;;
10651;SDS011;5374;42.742;23.266;2023-02-05T17:23:21;20.43;;;11.70;;
10651;SDS011;5374;42.742;23.266;2023-02-05T17:26:11;14.27;;;9.17;;
10651;SDS011;5374;42.742;23.266;2023-02-05T17:28:59;12.47;;;8.13;;
10651;SDS011;5374;42.742;23.266;2023-02-05T17:31:50;12.53;;;8.57;;
10651;SDS011;5374;42.742;23.266;2023-02-05T17:34:42;16.17;;;10.00;;
10651;SDS011;5374;42.742;23.266;2023-02-05T17:37:32;18.10;;;11.00;;